ePrivacy and GPDR Cookie Consent by Cookie Consent
EmailTwitter


Observations de surface / France / LFMP (07747)

Régions: Québec | Canada | États-Unis | Europe | France | UK | Ailleurs
Station
Affichage
Infos & localisation pour LFMP (07747) | Aide pour décoder les METARs

Observations prises le 2022-09-30 à 19H30 UTC à PERPIGNAN/RIVESA, FR (LFMP)

Etat du ciel: quelques nuages.

Température: 16.0 Celsius

Point de rosée: 7.0 Celsius

Humidité relative: 55%

Vents: Ouest-nord-ouest à 11 km/h ou 6 noeuds.

Pression au niveau moyen de la mer: 101.70 kilopascals.

Visibilité horizontale: 6.21 milles terrestres ou 9.94 kilomètres.

Observation METAR:

LFMP 301930Z AUTO 29006KT 270V330 9999 FEW001 16/07 Q1017 BECMG 30020G37KT=